createdAt,value
2018-07-20T00:03:29.297Z,20.10
2018-07-20T00:08:25.130Z,20.11
2018-07-20T00:13:20.856Z,20.07
2018-07-20T00:18:17.907Z,20.09
2018-07-20T00:23:13.583Z,20.06
2018-07-20T00:28:09.452Z,20.03
2018-07-20T00:33:05.912Z,20.04
2018-07-20T00:38:01.534Z,20.06
2018-07-20T00:42:57.177Z,20.06
2018-07-20T00:47:52.974Z,20.02
2018-07-20T00:52:50.015Z,19.88
2018-07-20T00:57:45.577Z,19.77
2018-07-20T01:02:41.341Z,19.63
2018-07-20T01:07:37.250Z,19.52
2018-07-20T01:12:33.550Z,19.54
2018-07-20T01:17:29.278Z,19.62
2018-07-20T01:22:26.040Z,19.54
2018-07-20T01:27:21.788Z,19.29
2018-07-20T01:32:17.944Z,19.16
2018-07-20T01:37:14.932Z,19.04
2018-07-20T01:42:10.326Z,19.04
2018-07-20T01:47:06.703Z,18.98
2018-07-20T01:52:02.728Z,18.88
2018-07-20T01:56:58.328Z,18.93
2018-07-20T02:01:54.052Z,18.83
2018-07-20T02:06:50.449Z,18.63
2018-07-20T02:11:46.223Z,18.50
2018-07-20T02:16:41.990Z,18.65
2018-07-20T02:21:38.006Z,18.52
2018-07-20T02:26:34.171Z,18.35
2018-07-20T02:31:29.896Z,18.55
2018-07-20T02:36:25.469Z,18.35
2018-07-20T02:41:21.347Z,18.55
2018-07-20T02:46:18.200Z,18.50
2018-07-20T02:51:13.668Z,18.34
2018-07-20T02:56:10.469Z,18.37
2018-07-20T03:01:05.932Z,18.18
2018-07-20T03:06:02.811Z,18.33
2018-07-20T03:10:58.628Z,18.33
2018-07-20T03:15:54.509Z,18.31
2018-07-20T03:20:50.265Z,18.29
2018-07-20T03:25:46.482Z,18.43
2018-07-20T03:30:42.559Z,18.77
2018-07-20T03:35:39.349Z,18.92
2018-07-20T03:40:35.355Z,19.08
2018-07-20T03:45:31.263Z,19.27
2018-07-20T03:50:27.420Z,19.33
2018-07-20T03:55:23.255Z,19.26
2018-07-20T04:00:19.283Z,19.30
2018-07-20T04:05:15.211Z,19.47
2018-07-20T04:10:11.355Z,19.44
2018-07-20T04:15:07.378Z,19.40
2018-07-20T04:20:03.310Z,19.37
2018-07-20T04:24:59.124Z,19.29
2018-07-20T04:29:55.183Z,19.40
2018-07-20T04:34:50.864Z,19.41
2018-07-20T04:39:48.081Z,19.40
2018-07-20T04:44:44.034Z,18.99
2018-07-20T04:49:40.944Z,19.30
2018-07-20T04:54:36.774Z,19.47
2018-07-20T04:59:33.101Z,19.62
2018-07-20T05:04:29.625Z,19.66
2018-07-20T05:09:27.078Z,20.10
2018-07-20T05:14:23.135Z,20.32
2018-07-20T05:19:20.632Z,20.55
2018-07-20T05:24:16.274Z,20.51
2018-07-20T05:29:12.642Z,20.66
2018-07-20T05:34:09.033Z,20.74
2018-07-20T05:39:04.852Z,20.34
2018-07-20T05:44:01.013Z,20.70
2018-07-20T05:48:57.054Z,21.39
2018-07-20T05:53:54.209Z,21.99
2018-07-20T05:58:51.042Z,22.13
2018-07-20T06:03:47.173Z,22.30
2018-07-20T06:08:43.501Z,22.14
2018-07-20T06:13:40.221Z,21.93
2018-07-20T06:18:35.772Z,21.76
2018-07-20T06:23:31.571Z,20.92
2018-07-20T06:28:27.251Z,20.81
2018-07-20T06:33:22.998Z,21.11
2018-07-20T06:38:20.428Z,21.79
2018-07-20T06:43:16.612Z,22.11
2018-07-20T06:48:13.217Z,22.39
2018-07-20T06:53:09.137Z,22.41
2018-07-20T06:58:06.044Z,22.15
2018-07-20T07:03:02.807Z,22.23
2018-07-20T07:07:58.313Z,22.11
2018-07-20T07:12:54.223Z,22.17
2018-07-20T07:17:50.333Z,22.54
2018-07-20T07:22:46.436Z,22.73
2018-07-20T07:27:42.691Z,22.55
2018-07-20T07:32:38.950Z,22.83
2018-07-20T07:37:34.872Z,22.98
2018-07-20T07:42:32.187Z,23.21
2018-07-20T07:47:29.353Z,23.15
2018-07-20T07:52:25.011Z,23.24
2018-07-20T07:57:21.510Z,24.50
2018-07-20T08:02:20.781Z,26.36
2018-07-20T08:07:20.322Z,27.75
2018-07-20T08:12:18.733Z,27.32
2018-07-20T08:17:15.881Z,28.66
2018-07-20T08:22:13.347Z,30.19
2018-07-20T08:27:10.632Z,31.62
2018-07-20T08:32:07.666Z,32.00
2018-07-20T08:37:04.606Z,32.34
2018-07-20T08:42:02.283Z,32.34
2018-07-20T08:46:58.664Z,32.00
2018-07-20T08:51:54.774Z,31.43
2018-07-20T08:56:50.929Z,29.94
2018-07-20T09:01:47.556Z,29.72
2018-07-20T09:06:43.604Z,31.46
2018-07-20T09:11:40.338Z,32.29
2018-07-20T09:16:37.265Z,32.82
2018-07-20T09:21:34.593Z,31.64
2018-07-20T09:26:32.062Z,32.26
2018-07-20T09:31:28.173Z,31.73
2018-07-20T09:36:24.413Z,32.23
2018-07-20T09:41:20.802Z,32.30
2018-07-20T09:46:18.034Z,31.89
2018-07-20T09:51:13.750Z,30.72
2018-07-20T09:56:10.591Z,30.69
2018-07-20T10:01:06.424Z,32.18
2018-07-20T10:06:04.382Z,33.09
2018-07-20T10:11:00.569Z,33.19
2018-07-20T10:15:56.367Z,31.49
2018-07-20T10:20:52.305Z,30.70
2018-07-20T10:25:48.573Z,31.05
2018-07-20T10:30:44.775Z,30.73
2018-07-20T10:35:39.824Z,31.12
2018-07-20T10:40:37.317Z,30.91
2018-07-20T10:45:33.700Z,32.15
2018-07-20T10:50:31.049Z,32.77
2018-07-20T10:55:29.194Z,33.31
2018-07-20T11:00:30.105Z,33.69
2018-07-20T11:05:24.060Z,32.26
2018-07-20T11:10:19.792Z,32.03
2018-07-20T11:15:16.781Z,32.49
2018-07-20T11:20:13.928Z,31.81
2018-07-20T11:25:10.488Z,30.96
2018-07-20T11:30:08.093Z,32.55
2018-07-20T11:35:05.288Z,33.52
2018-07-20T11:40:01.115Z,33.61
2018-07-20T11:44:57.384Z,33.86
2018-07-20T11:49:50.762Z,31.07
2018-07-20T11:54:46.854Z,30.61
2018-07-20T11:59:41.364Z,31.03
2018-07-20T12:04:36.199Z,30.24
2018-07-20T12:09:31.977Z,30.43
2018-07-20T12:14:28.943Z,30.30
2018-07-20T12:19:24.447Z,30.08
2018-07-20T12:24:21.016Z,30.19
2018-07-20T12:29:20.461Z,31.99
2018-07-20T12:34:15.999Z,31.73
2018-07-20T12:39:13.526Z,31.54
2018-07-20T12:44:09.650Z,31.37
2018-07-20T12:49:07.776Z,32.09
2018-07-20T12:54:01.803Z,31.64
2018-07-20T12:58:58.929Z,32.38
2018-07-20T13:03:56.589Z,33.09
2018-07-20T13:08:53.914Z,34.52
2018-07-20T13:13:51.147Z,35.53
2018-07-20T13:18:48.363Z,33.09
2018-07-20T13:23:43.745Z,33.22
2018-07-20T13:28:38.125Z,32.31
2018-07-20T13:33:35.013Z,32.07
2018-07-20T13:38:30.919Z,32.16
2018-07-20T13:43:28.065Z,32.49
2018-07-20T13:48:23.747Z,33.04
2018-07-20T13:53:19.671Z,32.86
2018-07-20T13:58:16.213Z,31.97
2018-07-20T14:03:12.229Z,31.24
2018-07-20T14:08:08.421Z,31.25
2018-07-20T14:13:03.713Z,31.22
2018-07-20T14:18:00.617Z,31.14
2018-07-20T14:22:55.893Z,31.10
2018-07-20T14:27:51.696Z,31.03
2018-07-20T14:32:47.746Z,30.94
2018-07-20T14:37:43.244Z,30.77
2018-07-20T14:42:38.763Z,30.54
2018-07-20T14:47:35.448Z,30.23
2018-07-20T14:52:30.791Z,30.09
2018-07-20T14:57:27.685Z,30.24
2018-07-20T15:02:23.428Z,30.09
2018-07-20T15:07:19.287Z,29.90
2018-07-20T15:12:15.175Z,30.06
2018-07-20T15:17:11.557Z,29.87
2018-07-20T15:22:07.762Z,30.10
2018-07-20T15:27:03.780Z,30.03
2018-07-20T15:31:59.859Z,29.88
2018-07-20T15:36:56.724Z,29.84
2018-07-20T15:41:52.285Z,29.65
2018-07-20T15:46:48.572Z,29.63
2018-07-20T15:56:44.876Z,29.51
2018-07-20T16:01:40.789Z,29.41
2018-07-20T16:06:36.611Z,29.31
2018-07-20T16:11:32.447Z,29.32
2018-07-20T16:16:29.445Z,29.26
2018-07-20T16:21:26.222Z,29.29
2018-07-20T16:26:23.251Z,29.24
2018-07-20T16:31:18.947Z,29.24
2018-07-20T16:36:15.693Z,29.20
2018-07-20T16:41:11.432Z,29.16
2018-07-20T16:46:07.612Z,29.05
2018-07-20T16:51:03.689Z,29.10
2018-07-20T16:55:59.771Z,29.02
2018-07-20T17:00:56.980Z,28.93
2018-07-20T17:05:52.686Z,28.98
2018-07-20T17:10:48.756Z,28.98
2018-07-20T17:15:45.122Z,29.05
2018-07-20T17:20:41.217Z,29.12
2018-07-20T17:25:37.550Z,29.17
2018-07-20T17:30:33.546Z,29.20
2018-07-20T17:35:29.638Z,29.13
2018-07-20T17:40:26.567Z,29.14
2018-07-20T17:45:22.206Z,29.19
2018-07-20T17:50:18.431Z,28.94
2018-07-20T17:55:15.448Z,28.85
2018-07-20T18:00:12.152Z,28.85
2018-07-20T18:05:07.779Z,28.85
2018-07-20T18:10:03.748Z,28.67
2018-07-20T18:15:01.009Z,28.67
2018-07-20T18:19:56.827Z,28.52
2018-07-20T18:24:53.736Z,28.67
2018-07-20T18:29:50.823Z,28.57
2018-07-20T18:34:47.584Z,28.48
2018-07-20T18:39:43.253Z,28.38
2018-07-20T18:44:39.532Z,28.32
2018-07-20T18:49:36.173Z,28.17
2018-07-20T18:54:32.854Z,28.14
2018-07-20T18:59:28.630Z,28.01
2018-07-20T19:04:24.550Z,27.75
2018-07-20T19:09:21.415Z,27.63
2018-07-20T19:14:18.468Z,27.44
2018-07-20T19:19:13.973Z,27.35
2018-07-20T19:24:11.089Z,27.27
2018-07-20T19:29:06.742Z,27.11
2018-07-20T19:34:02.584Z,27.08
2018-07-20T19:38:58.549Z,27.02
2018-07-20T19:43:54.532Z,26.80
2018-07-20T19:48:50.474Z,26.78
2018-07-20T19:53:46.521Z,26.56
2018-07-20T19:58:42.795Z,26.51
2018-07-20T20:03:38.480Z,26.36
2018-07-20T20:08:35.790Z,26.31
2018-07-20T20:13:31.224Z,26.29
2018-07-20T20:18:26.991Z,26.10
2018-07-20T20:23:22.831Z,26.03
2018-07-20T20:28:18.739Z,26.09
2018-07-20T20:33:15.816Z,25.91
2018-07-20T20:38:11.843Z,25.85
2018-07-20T20:43:07.724Z,25.84
2018-07-20T20:48:03.671Z,25.75
2018-07-20T20:52:59.642Z,25.50
2018-07-20T20:57:56.646Z,25.47
2018-07-20T21:02:52.519Z,25.47
2018-07-20T21:07:48.503Z,25.48
2018-07-20T21:12:45.420Z,25.40
2018-07-20T21:17:41.142Z,25.40
2018-07-20T21:22:38.124Z,25.18
2018-07-20T21:27:33.907Z,25.08
2018-07-20T21:32:29.798Z,24.96
2018-07-20T21:37:25.745Z,24.95
2018-07-20T21:42:21.632Z,24.88
2018-07-20T21:47:17.761Z,24.74
2018-07-20T21:52:13.655Z,24.66
2018-07-20T21:57:09.542Z,24.65
2018-07-20T22:02:05.709Z,24.57
2018-07-20T22:07:01.954Z,24.47
2018-07-20T22:11:57.844Z,24.39
2018-07-20T22:16:54.978Z,24.48
2018-07-20T22:21:51.010Z,24.36
2018-07-20T22:26:47.997Z,24.48
2018-07-20T22:31:44.424Z,24.42
2018-07-20T22:36:41.262Z,24.29
2018-07-20T22:41:36.918Z,24.23
2018-07-20T22:46:32.801Z,24.16
2018-07-20T22:51:29.064Z,24.06
2018-07-20T22:56:25.128Z,24.11
2018-07-20T23:01:21.021Z,24.03
2018-07-20T23:06:16.943Z,24.02
2018-07-20T23:11:14.134Z,23.88
2018-07-20T23:16:09.582Z,23.88
2018-07-20T23:21:06.408Z,23.81
2018-07-20T23:26:02.102Z,23.76
2018-07-20T23:30:58.145Z,23.73
2018-07-20T23:35:55.260Z,23.71
2018-07-20T23:40:50.754Z,23.66
2018-07-20T23:45:46.611Z,23.46
2018-07-20T23:50:42.666Z,23.47
2018-07-20T23:55:38.855Z,23.47
